Time;durP1;ratioP1;P1;durP2;ratioP2;P2;SDS_P1;SDS_P2;PMS_P1;PMS_P2;Temp;Humidity;BMP_temperature;BMP_pressure;BME280_temperature;BME280_humidity;BME280_pressure;Samples;Min_cycle;Max_cycle;Signal;HPM_P1;HPM_P2
2020/12/07 00:01:55;;;;;;;128.07;44.83;;;2.40;99.90;;;;;;4995345;28;20584;-91
2020/12/07 00:04:21;;;;;;;121.60;43.80;;;2.30;99.90;;;;;;4995023;28;20985;-91
2020/12/07 00:06:52;;;;;;;113.40;43.20;;;2.20;99.90;;;;;;4995617;28;20438;-90
2020/12/07 00:09:19;;;;;;;110.07;44.43;;;2.20;99.90;;;;;;4995788;28;20450;-89
2020/12/07 00:11:47;;;;;;;96.27;43.40;;;2.20;99.90;;;;;;4994934;28;20470;-94
2020/12/07 00:14:15;;;;;;;92.97;43.13;;;2.20;99.90;;;;;;4994889;28;20468;-90
2020/12/07 00:16:45;;;;;;;99.77;43.97;;;2.30;99.90;;;;;;4995487;28;20477;-89
2020/12/07 00:19:11;;;;;;;136.87;43.67;;;2.30;99.90;;;;;;4995633;28;20454;-89
2020/12/07 00:21:38;;;;;;;124.93;43.37;;;2.30;99.90;;;;;;4994987;28;20923;-88
2020/12/07 00:24:04;;;;;;;108.57;45.47;;;2.20;99.90;;;;;;4995328;28;20482;-91
2020/12/07 00:26:31;;;;;;;148.50;45.90;;;2.30;99.90;;;;;;4995010;28;21009;-92
2020/12/07 00:28:58;;;;;;;117.53;45.10;;;2.30;99.90;;;;;;4995294;28;20448;-89
2020/12/07 00:31:26;;;;;;;120.87;43.77;;;2.30;99.90;;;;;;4977180;28;20496;-89
2020/12/07 00:33:58;;;;;;;112.17;41.53;;;2.30;99.90;;;;;;4995869;28;20517;-91
2020/12/07 00:36:25;;;;;;;123.73;46.83;;;2.30;99.90;;;;;;4995203;28;20454;-90
2020/12/07 00:38:51;;;;;;;112.00;44.77;;;2.30;99.90;;;;;;4994705;28;20447;-90
2020/12/07 00:41:20;;;;;;;110.13;44.67;;;2.20;99.90;;;;;;4994603;28;20559;-91
2020/12/07 00:43:47;;;;;;;119.97;45.13;;;2.20;99.90;;;;;;4995213;28;20470;-90
2020/12/07 00:46:13;;;;;;;107.13;44.53;;;2.20;99.90;;;;;;4995019;28;20438;-90
2020/12/07 00:48:40;;;;;;;115.97;43.70;;;2.10;99.90;;;;;;4994936;28;20445;-89
2020/12/07 00:51:07;;;;;;;119.47;44.20;;;2.30;99.90;;;;;;4995039;28;20462;-89
2020/12/07 00:53:34;;;;;;;117.87;42.63;;;2.30;99.90;;;;;;4999234;28;20454;-90
2020/12/07 00:56:00;;;;;;;110.87;44.23;;;2.40;99.90;;;;;;4998402;28;20452;-91
2020/12/07 00:58:27;;;;;;;143.47;46.37;;;2.50;99.90;;;;;;4998691;28;20918;-91
2020/12/07 01:00:53;;;;;;;113.47;40.27;;;2.50;99.90;;;;;;4998205;28;20552;-91
2020/12/07 01:03:20;;;;;;;176.30;46.97;;;2.40;99.90;;;;;;4998839;28;20764;-91
2020/12/07 01:05:46;;;;;;;126.70;43.40;;;2.50;99.90;;;;;;4998206;28;20426;-90
2020/12/07 01:08:13;;;;;;;119.30;42.83;;;2.40;99.90;;;;;;4998872;28;20445;-91
2020/12/07 01:10:40;;;;;;;113.07;43.37;;;2.50;99.90;;;;;;4998105;28;20470;-93
2020/12/07 01:13:06;;;;;;;160.50;43.60;;;2.50;99.90;;;;;;4998054;28;20530;-89
2020/12/07 01:15:33;;;;;;;116.20;41.20;;;2.50;99.90;;;;;;4998228;28;20533;-90
2020/12/07 01:17:59;;;;;;;140.83;44.03;;;2.50;99.90;;;;;;4998853;28;20434;-90
2020/12/07 01:20:26;;;;;;;113.23;38.77;;;2.60;99.90;;;;;;4998296;28;20924;-93
2020/12/07 01:22:52;;;;;;;109.63;38.63;;;2.60;99.90;;;;;;4997484;28;20812;-90
2020/12/07 01:25:20;;;;;;;87.63;37.07;;;2.70;99.90;;;;;;4997707;28;20533;-92
2020/12/07 01:27:46;;;;;;;85.67;37.90;;;2.70;99.90;;;;;;4998415;28;20458;-92
2020/12/07 01:30:12;;;;;;;97.17;39.87;;;2.70;99.90;;;;;;4997713;28;20466;-90
2020/12/07 01:32:39;;;;;;;99.23;38.00;;;2.80;99.90;;;;;;4998080;28;20514;-92
2020/12/07 01:35:05;;;;;;;103.03;39.87;;;2.60;99.90;;;;;;4998251;28;20442;-89
2020/12/07 01:37:32;;;;;;;98.50;41.10;;;2.50;99.90;;;;;;4997769;28;20457;-91
2020/12/07 01:39:58;;;;;;;87.77;36.67;;;2.70;99.90;;;;;;4998368;28;20431;-91
2020/12/07 01:42:26;;;;;;;103.73;38.73;;;2.50;99.90;;;;;;4997643;28;20925;-91
2020/12/07 01:44:52;;;;;;;77.40;38.00;;;2.60;99.90;;;;;;4997876;28;20863;-90
2020/12/07 01:47:22;;;;;;;107.90;39.63;;;2.60;99.90;;;;;;4997817;28;20446;-91
2020/12/07 01:49:50;;;;;;;127.33;41.63;;;2.50;99.90;;;;;;4997333;28;20431;-91
2020/12/07 01:52:17;;;;;;;123.27;40.90;;;2.50;99.90;;;;;;4998077;28;20466;-90
2020/12/07 01:54:46;;;;;;;98.90;38.00;;;2.20;99.90;;;;;;4997137;28;20457;-90
2020/12/07 01:57:12;;;;;;;114.30;39.57;;;2.30;99.90;;;;;;4997166;28;20431;-91
2020/12/07 01:59:40;;;;;;;103.37;39.23;;;2.20;99.90;;;;;;4997819;28;20538;-92
2020/12/07 02:02:06;;;;;;;153.23;38.70;;;2.20;99.90;;;;;;4997146;28;20453;-92
2020/12/07 02:04:33;;;;;;;91.60;37.70;;;2.30;99.90;;;;;;4996436;28;20481;-90
2020/12/07 02:06:59;;;;;;;100.67;38.20;;;2.20;99.90;;;;;;4996912;28;20930;-93
2020/12/07 02:09:27;;;;;;;102.47;36.53;;;2.20;99.90;;;;;;4997250;28;20800;-92
2020/12/07 02:11:53;;;;;;;127.27;40.97;;;2.10;99.90;;;;;;4997220;28;20995;-89
2020/12/07 02:14:20;;;;;;;97.47;39.97;;;2.10;99.90;;;;;;4997090;28;20894;-90
2020/12/07 02:16:47;;;;;;;86.20;36.53;;;2.10;99.90;;;;;;4997300;28;20464;-89
2020/12/07 02:19:13;;;;;;;97.80;38.53;;;2.10;99.90;;;;;;4997532;28;20450;-90
2020/12/07 02:21:41;;;;;;;93.30;36.57;;;2.00;99.90;;;;;;4996942;28;20969;-88
2020/12/07 02:24:08;;;;;;;83.63;36.40;;;2.10;99.90;;;;;;4988550;28;20481;-91
2020/12/07 02:26:34;;;;;;;76.17;33.73;;;2.10;99.90;;;;;;4996986;28;20498;-90
2020/12/07 02:29:01;;;;;;;98.77;37.77;;;2.00;99.90;;;;;;4997397;28;20446;-91
2020/12/07 02:31:27;;;;;;;104.67;37.97;;;2.00;99.90;;;;;;4996733;28;20470;-93
2020/12/07 02:33:54;;;;;;;83.43;36.23;;;2.10;99.90;;;;;;4996674;28;20518;-90
2020/12/07 02:36:20;;;;;;;84.27;35.40;;;2.10;99.90;;;;;;4996601;28;20525;-91
2020/12/07 02:38:47;;;;;;;74.70;35.07;;;2.10;99.90;;;;;;4996526;28;20434;-89
2020/12/07 02:41:16;;;;;;;82.17;34.07;;;2.10;99.90;;;;;;4996536;28;20462;-89
2020/12/07 02:43:43;;;;;;;72.00;33.93;;;2.10;99.90;;;;;;4996450;28;20964;-90
2020/12/07 02:46:09;;;;;;;66.13;31.37;;;2.20;99.90;;;;;;4996806;28;20478;-90
2020/12/07 02:48:36;;;;;;;64.83;30.37;;;2.20;99.90;;;;;;4997644;28;20805;-90
2020/12/07 02:51:02;;;;;;;54.83;30.27;;;2.10;99.90;;;;;;5002467;28;21014;-90
2020/12/07 02:53:29;;;;;;;57.80;30.07;;;2.10;99.90;;;;;;4998490;28;20446;-93
2020/12/07 02:55:56;;;;;;;58.93;32.50;;;2.20;99.90;;;;;;4997354;28;20533;-90
2020/12/07 02:58:22;;;;;;;57.47;32.13;;;2.10;99.90;;;;;;4997049;28;20419;-91
2020/12/07 03:00:49;;;;;;;58.77;29.97;;;2.10;99.90;;;;;;4996448;28;20462;-91
2020/12/07 03:03:15;;;;;;;56.13;30.40;;;2.00;99.90;;;;;;4995944;28;20457;-91
2020/12/07 03:05:41;;;;;;;60.13;31.90;;;2.10;99.90;;;;;;4996452;28;20961;-90
2020/12/07 03:08:08;;;;;;;66.60;32.20;;;2.10;99.90;;;;;;4996209;28;20443;-89
2020/12/07 03:10:34;;;;;;;73.63;30.90;;;2.10;99.90;;;;;;4996042;28;20532;-90
2020/12/07 03:13:02;;;;;;;67.77;31.67;;;2.10;99.90;;;;;;4997720;28;20814;-90
2020/12/07 03:15:28;;;;;;;82.70;32.60;;;2.10;99.90;;;;;;4997657;28;20442;-89
2020/12/07 03:17:54;;;;;;;118.40;47.88;;;2.10;99.90;;;;;;4997408;28;20449;-89
2020/12/07 03:20:21;;;;;;;95.40;36.77;;;2.20;99.90;;;;;;4996196;28;20228;-91
2020/12/07 03:22:47;;;;;;;84.90;34.70;;;2.10;99.90;;;;;;4996357;28;20973;-91
2020/12/07 03:25:13;;;;;;;87.10;32.70;;;2.10;99.90;;;;;;4995554;28;20486;-91
2020/12/07 03:27:40;;;;;;;105.10;36.60;;;2.10;99.90;;;;;;4995721;28;20522;-93
2020/12/07 03:30:07;;;;;;;115.13;35.87;;;2.20;99.90;;;;;;4995668;28;20481;-93
2020/12/07 03:32:34;;;;;;;105.70;34.00;;;2.10;99.90;;;;;;4995706;28;20434;-90
2020/12/07 03:35:00;;;;;;;101.50;34.30;;;2.20;99.90;;;;;;4995809;28;20442;-89
2020/12/07 03:37:27;;;;;;;89.30;34.70;;;2.20;99.90;;;;;;4995816;28;20451;-93
2020/12/07 03:39:53;;;;;;;104.43;34.77;;;2.20;99.90;;;;;;4995618;28;20447;-93
2020/12/07 03:42:19;;;;;;;108.43;33.93;;;2.30;99.90;;;;;;4978209;28;20453;-92
2020/12/07 03:44:46;;;;;;;107.20;34.53;;;2.30;99.90;;;;;;4995191;28;20576;-90
2020/12/07 03:47:14;;;;;;;96.43;33.23;;;2.30;99.90;;;;;;4995484;28;20450;-92
2020/12/07 03:49:40;;;;;;;201.73;57.97;;;2.30;99.90;;;;;;4977060;28;20468;-91
2020/12/07 03:52:06;;;;;;;117.57;38.93;;;2.40;99.90;;;;;;4996163;28;20204;-92
2020/12/07 03:54:33;;;;;;;105.07;35.10;;;2.50;99.90;;;;;;4995612;28;20450;-88
2020/12/07 03:56:59;;;;;;;77.73;33.07;;;2.50;99.90;;;;;;4995720;28;20477;-91
2020/12/07 03:59:26;;;;;;;92.47;35.33;;;2.30;99.90;;;;;;4995633;28;20545;-92
2020/12/07 04:01:52;;;;;;;79.83;32.00;;;2.30;99.90;;;;;;4995191;28;20470;-90
2020/12/07 04:04:24;;;;;;;91.83;33.40;;;2.50;99.90;;;;;;4994853;28;20486;-93
2020/12/07 04:06:51;;;;;;;80.47;31.40;;;2.50;99.90;;;;;;4995013;28;20466;-92
2020/12/07 04:09:18;;;;;;;71.43;31.27;;;2.40;99.90;;;;;;4996218;28;20444;-91
2020/12/07 04:11:44;;;;;;;72.40;30.20;;;2.40;99.90;;;;;;4994870;28;20469;-90
2020/12/07 04:14:10;;;;;;;77.20;29.80;;;2.30;99.90;;;;;;4995135;28;20528;-91
2020/12/07 04:16:37;;;;;;;74.20;30.60;;;2.30;99.90;;;;;;4994967;28;20446;-91
2020/12/07 04:19:03;;;;;;;79.27;31.87;;;2.20;99.90;;;;;;4995110;28;20427;-90
2020/12/07 04:21:31;;;;;;;80.67;32.90;;;2.20;99.90;;;;;;4995530;28;20977;-92
2020/12/07 04:23:57;;;;;;;75.27;32.23;;;2.30;99.90;;;;;;4995831;28;20454;-91
2020/12/07 04:26:23;;;;;;;92.13;33.10;;;2.30;99.90;;;;;;4994894;28;21009;-92
2020/12/07 04:28:50;;;;;;;77.63;30.20;;;2.30;99.90;;;;;;4998938;28;20442;-94
2020/12/07 04:31:16;;;;;;;72.90;30.80;;;2.20;99.90;;;;;;5000348;28;20470;-91
2020/12/07 04:33:43;;;;;;;69.73;32.80;;;2.20;99.90;;;;;;5000620;28;20529;-93
2020/12/07 04:36:09;;;;;;;65.00;30.20;;;2.20;99.90;;;;;;5000481;28;20469;-93
2020/12/07 04:38:37;;;;;;;71.67;30.60;;;2.20;99.90;;;;;;4999950;28;20529;-92
2020/12/07 04:41:04;;;;;;;85.20;28.60;;;2.20;99.90;;;;;;4999363;28;20885;-92
2020/12/07 04:43:31;;;;;;;67.83;30.37;;;2.10;99.90;;;;;;5000479;28;20462;-92
2020/12/07 04:45:57;;;;;;;81.13;29.97;;;2.10;99.90;;;;;;4999841;28;20573;-92
2020/12/07 04:48:25;;;;;;;77.40;31.00;;;2.10;99.90;;;;;;4999534;28;20458;-93
2020/12/07 04:50:54;;;;;;;69.00;32.43;;;2.10;99.90;;;;;;4999048;28;20498;-93
2020/12/07 04:53:22;;;;;;;70.60;31.47;;;2.10;99.90;;;;;;4998835;28;20470;-91
2020/12/07 04:55:50;;;;;;;68.87;31.00;;;2.10;99.90;;;;;;4999657;28;20482;-90
2020/12/07 04:58:17;;;;;;;63.73;30.43;;;2.20;99.90;;;;;;4999595;28;20453;-92
2020/12/07 05:00:44;;;;;;;79.33;30.63;;;2.20;99.90;;;;;;5005809;28;20447;-90
2020/12/07 05:03:10;;;;;;;80.70;34.73;;;2.30;99.90;;;;;;5004042;28;20957;-91
2020/12/07 05:05:37;;;;;;;82.00;33.83;;;2.40;99.90;;;;;;5000533;28;21003;-91
2020/12/07 05:08:04;;;;;;;75.10;31.03;;;2.40;99.90;;;;;;4999110;28;20447;-91
2020/12/07 05:10:34;;;;;;;68.00;31.93;;;2.20;99.90;;;;;;4999222;28;20470;-92
2020/12/07 05:13:13;;;;;;;77.87;32.33;;;2.20;99.90;;;;;;4998926;28;20516;-92
2020/12/07 05:15:41;;;;;;;80.90;34.43;;;2.20;99.90;;;;;;4999374;28;20442;-91
2020/12/07 05:18:07;;;;;;;72.67;32.60;;;2.20;99.90;;;;;;4999138;28;20485;-95
2020/12/07 05:20:34;;;;;;;80.00;35.07;;;2.10;99.90;;;;;;4998536;28;20521;-93
2020/12/07 05:23:01;;;;;;;84.10;33.80;;;2.10;99.90;;;;;;4998150;28;20450;-90
2020/12/07 05:31:59;;;;;;;80.40;33.00;;;2.40;99.90;;;;;;4980964;28;20528;-85
2020/12/07 05:42:25;;;;;;;81.03;33.67;;;2.40;99.90;;;;;;5031218;28;20548;-85
2020/12/07 05:44:56;;;;;;;77.70;33.40;;;2.60;99.90;;;;;;5016326;28;20488;-84
2020/12/07 05:51:07;;;;;;;76.50;33.07;;;2.40;99.90;;;;;;5017151;28;20522;-85
2020/12/07 05:54:32;;;;;;;73.00;33.23;;;2.50;99.90;;;;;;5014901;28;20542;-85
2020/12/07 05:57:42;;;;;;;104.35;48.28;;;2.40;99.90;;;;;;5019116;28;20445;-85
2020/12/07 06:02:54;;;;;;;73.00;35.43;;;2.40;99.90;;;;;;5010327;23;20494;-84
2020/12/07 06:05:53;;;;;;;77.67;34.20;;;2.40;99.90;;;;;;5019527;28;20484;-84
2020/12/07 06:14:52;;;;;;;73.03;32.37;;;2.40;99.90;;;;;;1064228;23;21432;-80
2020/12/07 06:17:26;;;;;;;81.93;32.77;;;2.30;99.90;;;;;;5050562;28;20511;-84
2020/12/07 06:19:54;;;;;;;73.93;34.43;;;2.40;99.90;;;;;;5052147;28;20449;-84
2020/12/07 06:22:22;;;;;;;66.67;30.73;;;2.40;99.90;;;;;;5052616;28;20459;-84
2020/12/07 06:24:53;;;;;;;76.30;33.60;;;2.30;99.90;;;;;;5034679;28;20476;-84
2020/12/07 06:27:20;;;;;;;78.20;33.50;;;2.40;99.90;;;;;;5052961;28;20475;-84
2020/12/07 06:29:58;;;;;;;74.00;32.90;;;2.40;99.90;;;;;;5052691;28;20471;-84
2020/12/07 06:32:44;;;;;;;67.17;33.63;;;2.30;99.90;;;;;;5052911;28;20527;-84
2020/12/07 06:35:17;;;;;;;71.57;34.77;;;2.40;99.90;;;;;;5052064;28;20452;-84
2020/12/07 06:37:45;;;;;;;75.40;33.20;;;2.30;99.90;;;;;;5052049;28;20500;-84
2020/12/07 06:49:48;;;;;;;85.70;34.90;;;2.50;99.90;;;;;;5080965;23;20512;-84
2020/12/07 06:52:19;;;;;;;82.73;35.40;;;2.50;99.90;;;;;;4952474;29;20457;-84
2020/12/07 06:55:06;;;;;;;85.40;36.80;;;2.40;99.90;;;;;;4954267;29;20445;-84
2020/12/07 06:57:41;;;;;;;82.40;36.13;;;2.50;99.90;;;;;;4985253;23;21164;-83
2020/12/07 07:00:11;;;;;;;77.20;33.43;;;2.50;99.90;;;;;;5031713;28;20472;-84
2020/12/07 07:02:43;;;;;;;86.90;36.40;;;2.50;99.90;;;;;;5031840;28;20441;-83
2020/12/07 07:08:28;;;;;;;85.53;34.90;;;2.60;99.90;;;;;;5038315;28;20449;-85
2020/12/07 07:18:13;;;;;;;77.90;33.93;;;2.40;99.90;;;;;;4990468;28;20446;-84
2020/12/07 07:21:12;;;;;;;75.03;33.93;;;2.40;99.90;;;;;;5062702;23;20494;-84
2020/12/07 07:27:57;;;;;;;77.67;35.77;;;2.30;99.90;;;;;;5034409;28;20504;-84
2020/12/07 07:33:14;;;;;;;80.60;37.77;;;2.30;99.90;;;;;;5075175;23;20437;-84
2020/12/07 07:35:52;;;;;;;90.47;36.87;;;2.40;99.90;;;;;;5055315;23;20489;-83
2020/12/07 07:38:34;;;;;;;88.40;36.00;;;2.40;99.90;;;;;;5031252;28;20792;-84
2020/12/07 07:41:02;;;;;;;90.13;38.47;;;2.40;99.90;;;;;;5031085;28;20505;-84
2020/12/07 07:46:36;;;;;;;95.37;37.50;;;2.50;99.90;;;;;;4891737;26;20519;-84
2020/12/07 07:49:19;;;;;;;92.40;38.03;;;2.60;99.90;;;;;;5089007;23;20503;-83
2020/12/07 08:21:22;;;;;;;97.40;39.07;;;2.40;99.90;;;;;;5050514;23;20503;-83
2020/12/07 08:23:58;;;;;;;82.20;37.63;;;2.40;99.90;;;;;;4936119;29;20446;-81
2020/12/07 08:26:29;;;;;;;87.50;38.33;;;2.50;99.90;;;;;;4937524;29;20525;-81
2020/12/07 08:28:59;;;;;;;89.57;38.00;;;2.50;99.90;;;;;;5010842;23;20553;-80
2020/12/07 08:31:34;;;;;;;91.67;40.63;;;2.50;99.90;;;;;;4991660;28;20526;-81
2020/12/07 08:34:03;;;;;;;94.60;41.57;;;2.40;99.90;;;;;;4989508;28;20439;-81
2020/12/07 08:36:41;;;;;;;96.00;41.17;;;2.40;99.90;;;;;;4972358;28;20440;-81
2020/12/07 08:39:08;;;;;;;80.80;35.87;;;2.50;99.90;;;;;;4991190;28;20449;-82
2020/12/07 08:41:36;;;;;;;91.10;37.97;;;2.50;99.90;;;;;;4991054;28;20464;-82
2020/12/07 08:44:07;;;;;;;84.00;37.63;;;2.50;99.90;;;;;;4990733;28;20470;-81
2020/12/07 08:46:37;;;;;;;93.03;41.33;;;2.70;99.90;;;;;;4989289;28;20506;-82
2020/12/07 08:49:05;;;;;;;82.23;38.57;;;2.60;99.90;;;;;;4989655;28;20442;-81
2020/12/07 08:51:35;;;;;;;92.73;41.87;;;2.60;99.90;;;;;;4989032;28;20475;-82
2020/12/07 08:54:04;;;;;;;86.23;40.20;;;2.70;99.90;;;;;;4990629;28;20446;-81
2020/12/07 08:56:31;;;;;;;83.73;39.70;;;2.60;99.90;;;;;;4975047;28;20831;-82
2020/12/07 08:59:01;;;;;;;90.70;42.00;;;2.60;99.90;;;;;;4975858;28;20451;-83
2020/12/07 09:01:43;;;;;;;87.37;38.30;;;2.60;99.90;;;;;;5061615;23;20527;-83
2020/12/07 09:04:16;;;;;;;93.63;39.90;;;2.60;99.90;;;;;;5020428;28;20434;-83
2020/12/07 09:06:51;;;;;;;89.30;40.03;;;2.70;99.90;;;;;;5037030;28;20441;-81
2020/12/07 09:09:23;;;;;;;94.77;40.47;;;2.70;99.90;;;;;;5034344;28;20440;-83
2020/12/07 09:11:55;;;;;;;91.20;37.30;;;2.80;99.90;;;;;;5032715;28;20496;-82
2020/12/07 09:14:25;;;;;;;85.47;35.93;;;2.70;99.90;;;;;;5035283;28;20437;-83
2020/12/07 09:16:58;;;;;;;87.87;38.90;;;2.80;99.90;;;;;;5037683;28;20429;-79
2020/12/07 09:24:56;;;;;;;92.00;38.30;;;2.70;99.90;;;;;;5125744;23;20480;-83
2020/12/07 09:27:26;;;;;;;85.27;35.20;;;2.60;99.90;;;;;;5057659;28;20455;-82
2020/12/07 09:30:05;;;;;;;82.07;36.57;;;2.60;99.90;;;;;;5057318;28;20441;-84
2020/12/07 09:35:38;;;;;;;89.60;36.53;;;2.60;99.90;;;;;;1266497;23;20759;31
2020/12/07 09:38:05;;;;;;;91.57;38.10;;;2.60;99.90;;;;;;5088442;23;20504;-84
2020/12/07 09:40:32;;;;;;;76.23;35.77;;;2.60;99.90;;;;;;4996588;28;20467;-84
2020/12/07 09:43:01;;;;;;;84.43;36.43;;;2.60;99.90;;;;;;4996964;28;20451;-85
2020/12/07 09:45:29;;;;;;;78.10;34.60;;;2.60;99.90;;;;;;4997264;28;20550;-83
2020/12/07 09:48:03;;;;;;;85.30;37.20;;;2.40;99.90;;;;;;4988664;28;20455;-83
2020/12/07 09:50:35;;;;;;;86.93;38.60;;;2.50;99.90;;;;;;4977693;28;20468;-83
2020/12/07 09:53:19;;;;;;;72.43;34.60;;;2.50;99.90;;;;;;4977219;29;20436;-83
2020/12/07 09:55:47;;;;;;;85.90;37.87;;;2.50;99.90;;;;;;4959300;29;20478;-82
2020/12/07 09:58:14;;;;;;;75.20;38.83;;;2.60;99.90;;;;;;4977088;29;20444;-83
2020/12/07 10:00:42;;;;;;;79.07;36.23;;;2.50;99.90;;;;;;4976947;28;20467;-84
2020/12/07 10:03:13;;;;;;;81.83;37.50;;;2.60;99.90;;;;;;4985059;23;20459;-83
2020/12/07 10:05:41;;;;;;;80.83;38.77;;;2.60;99.90;;;;;;4992774;28;20514;-83
2020/12/07 10:08:09;;;;;;;76.43;36.70;;;2.70;99.90;;;;;;4994036;28;20491;-83
2020/12/07 10:10:38;;;;;;;71.53;34.67;;;2.60;99.90;;;;;;4994514;28;20475;-83
2020/12/07 10:13:05;;;;;;;74.87;38.67;;;2.60;99.90;;;;;;4994701;28;20455;-83
2020/12/07 10:15:32;;;;;;;75.93;36.23;;;2.60;99.90;;;;;;4976883;28;20458;-83
2020/12/07 10:18:09;;;;;;;80.40;37.77;;;2.60;99.90;;;;;;4993453;28;20455;-83
2020/12/07 10:20:35;;;;;;;71.63;37.30;;;2.70;99.90;;;;;;4993628;28;20458;-84
2020/12/07 10:23:17;;;;;;;67.67;37.10;;;2.80;99.90;;;;;;5013755;23;20485;-84
2020/12/07 10:25:50;;;;;;;68.80;35.87;;;2.80;99.90;;;;;;5031599;28;20917;-84
2020/12/07 10:41:13;;;;;;;66.40;33.63;;;2.90;99.90;;;;;;4998811;28;20459;-85
2020/12/07 10:44:22;;;;;;;59.90;33.07;;;2.80;99.90;;;;;;5002881;23;20474;-85
2020/12/07 10:55:59;;;;;;;63.07;32.63;;;3.10;99.90;;;;;;5009353;28;20497;-84
2020/12/07 10:58:26;;;;;;;69.73;33.07;;;2.90;99.90;;;;;;5017940;28;20434;-83
2020/12/07 11:04:19;;;;;;;60.33;32.77;;;2.90;99.90;;;;;;5025926;28;20936;-84
2020/12/07 11:06:52;;;;;;;60.43;33.30;;;2.90;99.90;;;;;;5058981;23;20508;-83
2020/12/07 11:09:26;;;;;;;60.03;34.13;;;2.90;99.90;;;;;;5027140;28;20880;-84
2020/12/07 11:11:56;;;;;;;60.80;32.70;;;2.90;99.90;;;;;;5032409;28;20472;-84
2020/12/07 11:14:23;;;;;;;55.07;32.67;;;2.90;99.90;;;;;;5031722;28;20458;-84
2020/12/07 11:16:52;;;;;;;64.60;32.30;;;3.10;99.90;;;;;;5030767;28;20453;-84
2020/12/07 11:22:09;;;;;;;64.60;33.67;;;3.00;99.90;;;;;;5016457;28;20437;-83
2020/12/07 11:24:38;;;;;;;61.93;34.37;;;3.00;99.90;;;;;;5031697;28;20453;-84
2020/12/07 11:27:06;;;;;;;58.23;33.23;;;3.10;99.90;;;;;;5031694;28;20443;-83
2020/12/07 11:29:34;;;;;;;57.37;32.47;;;3.20;99.90;;;;;;5031728;28;20452;-83
2020/12/07 11:32:01;;;;;;;56.53;32.30;;;3.10;99.90;;;;;;5014257;28;20840;-84
2020/12/07 11:34:30;;;;;;;58.20;31.60;;;3.20;99.90;;;;;;5015073;28;20442;-84
2020/12/07 11:37:00;;;;;;;55.53;34.07;;;3.30;99.90;;;;;;5030705;28;20445;-84
2020/12/07 11:39:40;;;;;;;59.70;34.03;;;3.30;99.90;;;;;;5015285;28;20429;-84
2020/12/07 11:42:34;;;;;;;63.10;30.47;;;3.20;99.90;;;;;;5028960;28;20453;-84
2020/12/07 11:45:03;;;;;;;57.27;30.60;;;3.20;99.90;;;;;;5011411;28;20514;-84
2020/12/07 11:47:48;;;;;;;58.47;29.80;;;3.20;99.90;;;;;;4994391;28;20506;-84
2020/12/07 11:50:15;;;;;;;53.90;29.07;;;3.30;99.90;;;;;;5012491;28;20460;-84
2020/12/07 11:52:48;;;;;;;56.67;28.67;;;3.00;99.90;;;;;;5012331;28;20438;-85
2020/12/07 11:55:19;;;;;;;54.77;30.30;;;2.90;99.90;;;;;;5011608;28;20453;-85
2020/12/07 11:57:47;;;;;;;59.23;29.80;;;2.90;99.90;;;;;;5061083;23;20463;-84
2020/12/07 12:00:22;;;;;;;59.07;31.50;;;3.00;99.90;;;;;;4990288;28;20479;-84
2020/12/07 12:02:49;;;;;;;57.10;32.53;;;2.90;99.90;;;;;;4992387;28;20486;-85
2020/12/07 12:05:17;;;;;;;56.60;30.87;;;2.90;99.90;;;;;;4992791;28;20485;-84
2020/12/07 12:07:45;;;;;;;61.50;33.37;;;2.90;99.90;;;;;;4993032;28;20947;-84
2020/12/07 12:10:13;;;;;;;71.13;32.90;;;3.00;99.90;;;;;;4992795;28;20804;-84
2020/12/07 12:12:44;;;;;;;60.97;31.03;;;3.10;99.90;;;;;;4977042;28;20433;-84
2020/12/07 12:15:16;;;;;;;60.67;31.47;;;3.20;99.90;;;;;;4993388;28;20436;-84
2020/12/07 12:17:43;;;;;;;58.03;33.47;;;3.20;99.90;;;;;;4975516;28;20462;-84
2020/12/07 12:20:17;;;;;;;54.67;30.93;;;3.10;99.90;;;;;;4992660;28;20475;-84
2020/12/07 12:22:44;;;;;;;60.83;32.47;;;3.20;99.90;;;;;;4993576;28;21010;-85
2020/12/07 12:25:14;;;;;;;64.03;32.27;;;3.30;99.90;;;;;;4992536;28;20475;-84
2020/12/07 12:27:43;;;;;;;57.27;32.23;;;3.40;99.90;;;;;;4992168;28;20530;-84
2020/12/07 12:30:14;;;;;;;58.37;30.90;;;3.30;99.90;;;;;;5072076;23;20485;-84
2020/12/07 12:32:43;;;;;;;54.80;29.90;;;3.10;99.90;;;;;;5014682;28;20437;-84
2020/12/07 12:35:12;;;;;;;55.33;30.30;;;3.10;99.90;;;;;;5031848;28;20525;-85
2020/12/07 12:37:45;;;;;;;66.30;32.03;;;3.10;99.90;;;;;;5033936;28;20476;-86
2020/12/07 12:40:14;;;;;;;55.40;31.67;;;2.90;99.90;;;;;;5033913;28;20453;-85
2020/12/07 15:18:17;;;;;;;24.47;16.03;;;3.10;99.90;;;;;;4960048;29;20480;-85
2020/12/07 15:29:22;;;;;;;32.97;17.70;;;3.10;99.90;;;;;;4984747;23;20488;-85
2020/12/07 15:32:11;;;;;;;43.80;19.70;;;3.10;99.90;;;;;;5000685;23;20487;-86
2020/12/07 15:35:09;;;;;;;37.40;19.00;;;3.10;99.90;;;;;;4959627;29;20457;-86
2020/12/07 15:38:00;;;;;;;30.77;18.20;;;3.10;99.90;;;;;;4943463;29;20510;-86
2020/12/07 15:40:40;;;;;;;33.87;18.33;;;3.10;99.90;;;;;;4970018;23;20531;-85
2020/12/07 15:52:11;;;;;;;30.13;17.50;;;3.20;99.90;;;;;;4976919;28;20471;-92
2020/12/07 15:54:38;;;;;;;33.07;18.17;;;3.40;99.90;;;;;;4980244;28;20455;-91
2020/12/07 15:57:05;;;;;;;31.37;17.97;;;3.50;99.90;;;;;;4978450;28;20451;-89
2020/12/07 15:59:31;;;;;;;33.87;18.87;;;3.60;99.90;;;;;;4976969;28;20972;-92
2020/12/07 16:02:00;;;;;;;33.77;18.60;;;3.60;99.90;;;;;;4959018;28;20476;-92
2020/12/07 16:04:26;;;;;;;33.90;19.67;;;3.80;99.90;;;;;;4957074;29;20951;-92
2020/12/07 16:06:53;;;;;;;41.00;21.60;;;3.90;99.90;;;;;;4957267;29;20836;-93
2020/12/07 16:09:19;;;;;;;47.70;24.57;;;3.80;99.90;;;;;;4940825;29;20432;-91
2020/12/07 16:11:46;;;;;;;40.07;21.30;;;3.90;99.90;;;;;;4956589;28;20460;-90
2020/12/07 16:14:13;;;;;;;37.53;20.37;;;3.80;99.90;;;;;;4956100;29;20431;-92
2020/12/07 16:16:39;;;;;;;37.13;21.63;;;3.80;99.90;;;;;;4956940;29;20456;-91
2020/12/07 16:19:06;;;;;;;37.77;20.20;;;4.00;99.90;;;;;;4956948;29;20773;-92
2020/12/07 16:21:33;;;;;;;31.27;18.97;;;4.00;99.90;;;;;;4957214;28;20515;-92
2020/12/07 16:23:59;;;;;;;25.30;15.97;;;3.90;99.90;;;;;;4959061;28;20448;-93
2020/12/07 16:26:25;;;;;;;25.13;15.73;;;4.00;99.90;;;;;;4959994;29;20491;-92
2020/12/07 16:28:53;;;;;;;24.13;15.53;;;3.90;99.90;;;;;;4960071;29;20444;-91
2020/12/07 16:31:28;;;;;;;24.03;15.90;;;3.90;99.90;;;;;;4960461;28;20479;-90
2020/12/07 16:33:54;;;;;;;19.83;14.77;;;3.90;99.90;;;;;;4965144;29;20450;-93
2020/12/07 16:36:21;;;;;;;23.27;14.53;;;3.90;99.90;;;;;;4962777;29;21002;-93
2020/12/07 16:38:48;;;;;;;22.27;15.57;;;3.90;99.90;;;;;;4961095;29;20459;-92
2020/12/07 16:41:14;;;;;;;23.83;14.43;;;4.00;99.90;;;;;;4960144;28;20526;-91
2020/12/07 16:43:40;;;;;;;24.70;15.87;;;3.90;99.90;;;;;;4961283;29;20911;-94
2020/12/07 16:46:08;;;;;;;22.20;14.30;;;4.00;99.90;;;;;;4961453;29;20468;-92
2020/12/07 16:48:34;;;;;;;21.33;14.70;;;4.10;99.90;;;;;;4959875;29;20456;-92
2020/12/07 16:51:01;;;;;;;26.70;15.47;;;4.00;99.90;;;;;;4959326;28;20487;-92
2020/12/07 16:53:27;;;;;;;20.53;13.77;;;4.10;99.90;;;;;;4959945;29;20440;-93
2020/12/07 16:55:53;;;;;;;24.60;14.63;;;4.10;99.90;;;;;;4960394;29;20448;-94
2020/12/07 16:58:20;;;;;;;25.47;15.47;;;4.10;99.90;;;;;;4959795;29;20438;-92
2020/12/07 17:00:46;;;;;;;27.90;13.33;;;4.10;99.90;;;;;;4960445;28;20507;-94
2020/12/07 17:03:13;;;;;;;31.00;16.33;;;4.10;99.90;;;;;;4942931;29;20444;-92
2020/12/07 17:05:41;;;;;;;24.07;15.53;;;4.00;99.90;;;;;;4960122;29;20479;-94
2020/12/07 17:08:07;;;;;;;27.67;16.07;;;4.10;99.90;;;;;;4959479;29;20436;-92
2020/12/07 17:10:34;;;;;;;24.90;15.37;;;4.10;99.90;;;;;;4959654;28;20474;-93
2020/12/07 17:13:00;;;;;;;22.50;15.47;;;4.10;99.90;;;;;;4960470;29;20913;-92
2020/12/07 17:15:27;;;;;;;28.23;17.07;;;4.00;99.90;;;;;;4959475;29;20528;-92
2020/12/07 17:17:53;;;;;;;34.37;19.43;;;4.00;99.90;;;;;;4959111;29;20505;-92
2020/12/07 17:20:20;;;;;;;29.20;18.93;;;4.10;99.90;;;;;;4959233;28;20472;-93
2020/12/07 17:22:47;;;;;;;32.83;17.57;;;4.10;99.90;;;;;;4959648;29;20452;-92
2020/12/07 17:25:13;;;;;;;30.47;17.60;;;4.10;99.90;;;;;;4958885;28;20483;-91
2020/12/07 17:27:39;;;;;;;34.75;25.00;;;4.10;99.90;;;;;;4958845;29;20442;-92
2020/12/07 17:30:06;;;;;;;29.20;19.70;;;4.20;99.90;;;;;;4960104;28;20226;-93
2020/12/07 17:32:33;;;;;;;28.90;19.20;;;4.20;99.90;;;;;;4958575;29;20440;-92
2020/12/07 17:34:59;;;;;;;30.73;18.40;;;4.20;99.90;;;;;;4957763;28;20468;-93
2020/12/07 17:37:26;;;;;;;29.63;19.30;;;4.20;99.90;;;;;;4958813;29;20462;-92
2020/12/07 17:39:53;;;;;;;31.63;20.07;;;4.20;99.90;;;;;;4958611;28;20446;-93
2020/12/07 17:42:21;;;;;;;30.03;18.63;;;4.30;99.90;;;;;;4958785;29;20512;-93
2020/12/07 17:44:48;;;;;;;27.23;18.67;;;4.30;99.90;;;;;;4958566;29;20955;-92